createdAt,value
2023-01-01T00:03:38.574Z,0.30
2023-01-01T00:08:41.503Z,2.42
2023-01-01T00:13:44.789Z,2.63
2023-01-01T00:18:47.089Z,0.13
2023-01-01T00:23:49.368Z,0.25
2023-01-01T00:28:51.779Z,0.40
2023-01-01T00:33:54.960Z,23.10
2023-01-01T00:38:57.443Z,0.30
2023-01-01T00:44:00.013Z,0.10
2023-01-01T00:49:02.451Z,1.70
2023-01-01T00:54:05.094Z,2.78
2023-01-01T00:59:07.805Z,4.93
2023-01-01T01:04:10.320Z,3.00
2023-01-01T01:09:12.625Z,19.65
2023-01-01T01:14:15.079Z,0.47
2023-01-01T01:19:19.473Z,8.45
2023-01-01T01:24:21.790Z,5.28
2023-01-01T01:29:24.066Z,7.45
2023-01-01T01:34:28.388Z,4.78
2023-01-01T01:39:31.358Z,2.10
2023-01-01T01:44:56.271Z,0.10
2023-01-01T01:50:25.044Z,0.10
2023-01-01T01:55:28.953Z,0.57
2023-01-01T02:00:31.715Z,0.20
2023-01-01T02:05:34.943Z,0.10
2023-01-01T02:10:37.534Z,0.30
2023-01-01T02:16:06.174Z,0.10
2023-01-01T02:21:20.497Z,0.10
2023-01-01T02:26:45.439Z,0.55
2023-01-01T02:31:58.697Z,0.00
2023-01-01T02:37:01.432Z,2.55
2023-01-01T02:42:06.729Z,0.03
2023-01-01T02:47:17.614Z,0.10
2023-01-01T02:52:51.110Z,0.30
2023-01-01T02:58:24.360Z,0.03
2023-01-01T03:03:39.436Z,0.10
2023-01-01T03:08:55.362Z,0.10
2023-01-01T03:14:19.900Z,0.20
2023-01-01T03:19:27.822Z,0.00
2023-01-01T03:24:35.309Z,0.10
2023-01-01T03:29:42.446Z,0.10
2023-01-01T03:34:49.390Z,0.40
2023-01-01T03:39:58.039Z,0.10
2023-01-01T03:45:10.869Z,0.20
2023-01-01T03:50:14.290Z,0.10
2023-01-01T03:55:28.743Z,0.10
2023-01-01T04:00:43.004Z,0.10
2023-01-01T04:05:45.403Z,0.10
2023-01-01T04:10:53.707Z,0.45
2023-01-01T04:15:55.991Z,0.10
2023-01-01T04:20:58.286Z,36.35
2023-01-01T04:26:00.567Z,7.00
2023-01-01T04:31:03.326Z,0.10
2023-01-01T04:36:10.064Z,0.00
2023-01-01T04:41:12.395Z,25.90
2023-01-01T04:46:14.657Z,0.20
2023-01-01T04:51:19.084Z,0.10
2023-01-01T04:56:22.640Z,0.10
2023-01-01T05:01:29.957Z,1.55
2023-01-01T05:06:32.292Z,0.00
2023-01-01T05:11:34.675Z,1.38
2023-01-01T05:16:38.370Z,0.20
2023-01-01T05:21:41.085Z,0.20
2023-01-01T05:26:45.100Z,0.10
2023-01-01T05:31:47.498Z,0.10
2023-01-01T05:36:49.860Z,0.10
2023-01-01T05:41:52.148Z,0.20
2023-01-01T05:46:54.406Z,0.10
2023-01-01T05:51:56.671Z,0.10
2023-01-01T05:56:58.926Z,0.15
2023-01-01T06:02:01.265Z,0.10
2023-01-01T06:07:03.621Z,0.10
2023-01-01T06:12:06.411Z,0.00
2023-01-01T06:17:08.800Z,0.10
2023-01-01T06:22:11.250Z,0.10
2023-01-01T06:27:13.546Z,1.73
2023-01-01T06:32:15.811Z,4.53
2023-01-01T06:37:18.347Z,7.13
2023-01-01T06:42:20.639Z,0.10
2023-01-01T06:47:22.962Z,8.85
2023-01-01T06:52:25.208Z,0.30
2023-01-01T06:57:27.476Z,0.10
2023-01-01T07:02:30.046Z,0.13
2023-01-01T07:07:35.814Z,0.10
2023-01-01T07:12:38.356Z,0.10
2023-01-01T07:17:40.779Z,0.55
2023-01-01T07:22:43.261Z,0.10
2023-01-01T07:27:45.682Z,0.10
2023-01-01T07:32:47.978Z,0.43
2023-01-01T07:37:50.396Z,0.32
2023-01-01T07:42:52.810Z,0.10
2023-01-01T07:47:56.753Z,12.15
2023-01-01T07:52:59.212Z,0.00
2023-01-01T07:58:01.655Z,6.93
2023-01-01T08:03:04.013Z,1311.40
2023-01-01T08:08:06.392Z,1999.90
2023-01-01T08:13:09.687Z,1999.90
2023-01-01T08:18:11.934Z,1999.90
2023-01-01T08:23:14.359Z,1999.90
2023-01-01T08:28:16.649Z,1999.90
2023-01-01T08:33:18.903Z,1999.90
2023-01-01T08:38:21.237Z,0.15
2023-01-01T08:43:23.769Z,1999.90
2023-01-01T08:48:30.712Z,1999.90
2023-01-01T08:53:33.976Z,1999.90
2023-01-01T08:58:37.576Z,1999.90
2023-01-01T09:03:40.246Z,1999.90
2023-01-01T09:08:42.569Z,1999.90
2023-01-01T09:13:44.830Z,1999.90
2023-01-01T09:18:47.138Z,1999.90
2023-01-01T09:23:49.451Z,1999.90
2023-01-01T09:28:51.931Z,1999.90
2023-01-01T09:33:54.487Z,1999.90
2023-01-01T09:38:58.269Z,1999.90
2023-01-01T09:44:15.837Z,1999.90
2023-01-01T09:49:40.264Z,1999.90
2023-01-01T09:54:56.305Z,1999.90
2023-01-01T09:59:59.600Z,1999.90
2023-01-01T10:05:10.996Z,1999.90
2023-01-01T10:10:41.429Z,1999.90
2023-01-01T10:16:24.573Z,1999.90
2023-01-01T10:21:32.074Z,1999.90
2023-01-01T10:26:35.985Z,1999.90
2023-01-01T10:31:47.787Z,1999.90
2023-01-01T10:36:52.451Z,36.92
2023-01-01T10:41:54.836Z,0.10
2023-01-01T10:47:30.360Z,1273.57
2023-01-01T10:52:38.763Z,1999.90
2023-01-01T10:57:41.197Z,1999.90
2023-01-01T11:02:43.584Z,1999.90
2023-01-01T11:07:46.413Z,1999.90
2023-01-01T11:13:06.480Z,0.32
2023-01-01T11:18:23.941Z,0.20
2023-01-01T11:23:35.310Z,0.10
2023-01-01T11:28:37.644Z,1.08
2023-01-01T11:33:50.330Z,0.10
2023-01-01T11:39:05.273Z,0.25
2023-01-01T11:44:10.023Z,0.20
2023-01-01T11:49:21.125Z,0.20
2023-01-01T11:54:34.222Z,0.10
2023-01-01T11:59:59.800Z,0.10
2023-01-01T12:05:15.962Z,0.40
2023-01-01T12:10:23.316Z,2.90
2023-01-01T12:15:37.703Z,0.20
2023-01-01T12:20:53.112Z,0.40
2023-01-01T12:26:10.604Z,0.30
2023-01-01T12:31:19.008Z,0.50
2023-01-01T12:36:45.636Z,0.20
2023-01-01T12:42:25.430Z,0.22
2023-01-01T12:47:42.717Z,0.20
2023-01-01T12:53:22.719Z,6.53
2023-01-01T12:58:38.382Z,0.40
2023-01-01T13:03:52.908Z,7.88
2023-01-01T13:09:00.591Z,0.30
2023-01-01T13:14:02.974Z,0.20
2023-01-01T13:19:06.100Z,5.38
2023-01-01T13:24:21.378Z,0.50
2023-01-01T13:29:23.639Z,0.32
2023-01-01T13:34:59.500Z,7.53
2023-01-01T13:40:01.751Z,0.40
2023-01-01T13:45:04.827Z,0.10
2023-01-01T13:50:15.740Z,0.10
2023-01-01T13:55:43.565Z,0.20
2023-01-01T14:01:11.852Z,0.00
2023-01-01T14:06:38.703Z,390.65
2023-01-01T14:11:41.653Z,1.30
2023-01-01T14:16:44.032Z,1.50
2023-01-01T14:21:46.894Z,1.30
2023-01-01T14:26:49.378Z,1.10
2023-01-01T14:31:51.651Z,1.10
2023-01-01T14:37:02.327Z,1.10
2023-01-01T14:42:13.779Z,0.00
2023-01-01T14:52:29.106Z,0.10
2023-01-01T14:57:33.407Z,0.10
2023-01-01T15:02:38.895Z,0.00
2023-01-01T15:07:41.250Z,0.00
2023-01-01T15:12:43.654Z,0.10
2023-01-01T15:17:47.276Z,0.00
2023-01-01T15:22:50.534Z,0.10
2023-01-01T15:27:54.678Z,0.00
2023-01-01T15:32:57.663Z,0.00
2023-01-01T15:38:20.442Z,41.33
2023-01-01T15:43:25.428Z,0.10
2023-01-01T15:48:34.496Z,0.10
2023-01-01T15:53:53.876Z,0.10
2023-01-01T15:59:09.584Z,0.00
2023-01-01T16:04:28.453Z,0.00
2023-01-01T16:09:31.599Z,0.00
2023-01-01T16:14:34.300Z,0.10
2023-01-01T16:19:37.843Z,0.00
2023-01-01T16:24:40.463Z,0.10
2023-01-01T16:29:43.851Z,0.10
2023-01-01T16:34:47.294Z,0.10
2023-01-01T16:39:49.835Z,0.47
2023-01-01T16:44:52.230Z,0.00
2023-01-01T16:49:54.532Z,0.20
2023-01-01T16:54:56.926Z,0.25
2023-01-01T17:00:00.008Z,0.10
2023-01-01T17:05:02.372Z,0.25
2023-01-01T17:10:05.268Z,0.10
2023-01-01T17:15:08.149Z,0.05
2023-01-01T17:20:10.840Z,0.00
2023-01-01T17:25:13.146Z,0.00
2023-01-01T17:30:16.087Z,0.40
2023-01-01T17:35:18.710Z,0.00
2023-01-01T17:40:20.983Z,0.10
2023-01-01T17:45:23.399Z,0.10
2023-01-01T17:50:25.799Z,3.70
2023-01-01T17:55:29.911Z,0.10
2023-01-01T18:00:32.176Z,0.10
2023-01-01T18:05:34.718Z,0.00
2023-01-01T18:10:37.048Z,0.10
2023-01-01T18:15:39.614Z,0.08
2023-01-01T18:20:44.388Z,0.10
2023-01-01T18:25:46.817Z,0.00
2023-01-01T18:30:49.102Z,0.00
2023-01-01T18:35:55.647Z,0.10
2023-01-01T18:41:04.118Z,0.10
2023-01-01T18:46:15.586Z,22.67
2023-01-01T18:51:25.303Z,0.00
2023-01-01T18:56:31.491Z,0.10
2023-01-01T19:01:34.137Z,0.25
2023-01-01T19:06:36.483Z,0.00
2023-01-01T19:11:39.076Z,0.10
2023-01-01T19:16:41.644Z,0.10
2023-01-01T19:21:51.024Z,0.10
2023-01-01T19:27:17.036Z,1.05
2023-01-01T19:32:21.319Z,0.10
2023-01-01T19:37:23.866Z,0.10
2023-01-01T19:42:26.137Z,0.13
2023-01-01T19:47:28.522Z,0.47
2023-01-01T19:52:30.810Z,0.10
2023-01-01T19:57:33.354Z,0.00
2023-01-01T20:02:46.090Z,0.50
2023-01-01T20:07:49.181Z,0.10
2023-01-01T20:12:51.573Z,0.00
2023-01-01T20:17:54.058Z,0.20
2023-01-01T20:22:56.340Z,0.00
2023-01-01T20:28:17.141Z,1.52
2023-01-01T20:33:19.401Z,0.00
2023-01-01T20:38:23.379Z,0.10
2023-01-01T20:43:25.661Z,0.10
2023-01-01T20:48:28.026Z,0.10
2023-01-01T20:53:30.332Z,0.38
2023-01-01T20:58:32.917Z,0.10
2023-01-01T21:03:35.258Z,0.40
2023-01-01T21:08:37.542Z,0.10
2023-01-01T21:13:39.893Z,0.10
2023-01-01T21:18:42.204Z,0.00
2023-01-01T21:23:44.630Z,0.00
2023-01-01T21:28:47.740Z,0.10
2023-01-01T21:33:50.170Z,0.00
2023-01-01T21:38:52.989Z,0.47
2023-01-01T21:43:59.302Z,0.10
2023-01-01T21:49:15.206Z,0.00
2023-01-01T21:54:28.138Z,0.10
2023-01-01T21:59:38.571Z,0.00
2023-01-01T22:04:49.163Z,0.10
2023-01-01T22:09:52.016Z,0.55
2023-01-01T22:14:57.118Z,0.38
2023-01-01T22:20:22.631Z,0.10
2023-01-01T22:25:26.745Z,0.05
2023-01-01T22:30:42.192Z,0.45
2023-01-01T22:35:45.183Z,0.10
2023-01-01T22:40:51.214Z,0.10
2023-01-01T22:45:53.840Z,0.00
2023-01-01T22:50:56.953Z,0.10
2023-01-01T22:55:59.240Z,0.10
2023-01-01T23:01:01.698Z,0.00
2023-01-01T23:06:04.395Z,0.10
2023-01-01T23:11:06.680Z,0.10
2023-01-01T23:16:09.138Z,0.10
2023-01-01T23:21:26.032Z,3.35
2023-01-01T23:26:29.592Z,2.22
2023-01-01T23:31:32.218Z,0.10
2023-01-01T23:36:34.925Z,0.10
2023-01-01T23:41:37.237Z,0.25
2023-01-01T23:46:40.314Z,0.10
2023-01-01T23:51:42.692Z,0.65
2023-01-01T23:56:45.067Z,0.25
